createdAt,value
2022-10-12T07:20:15.276Z,10.70
2022-10-12T07:22:42.256Z,10.80
2022-10-12T07:25:09.330Z,10.90
2022-10-12T07:27:36.545Z,11.00
2022-10-12T07:30:04.199Z,10.90
2022-10-12T07:32:31.041Z,10.90
2022-10-12T07:34:58.260Z,11.00
2022-10-12T07:37:25.329Z,11.00
2022-10-12T07:39:57.301Z,11.10
2022-10-12T07:42:25.514Z,11.20
2022-10-12T07:44:52.745Z,11.20
2022-10-12T07:47:19.995Z,11.40
2022-10-12T07:49:47.104Z,11.40
2022-10-12T07:52:14.150Z,11.50
2022-10-12T07:54:41.341Z,11.50
2022-10-12T07:57:08.733Z,11.60
2022-10-12T07:59:35.748Z,11.70
2022-10-12T08:02:02.735Z,11.70
2022-10-12T08:04:29.698Z,11.80
2022-10-12T08:06:58.130Z,12.00
2022-10-12T08:09:25.056Z,11.90
2022-10-12T08:11:52.037Z,12.00
2022-10-12T08:14:19.115Z,12.10
2022-10-12T08:16:46.240Z,12.20
2022-10-12T08:19:13.746Z,12.10
2022-10-12T08:21:42.608Z,12.20
2022-10-12T08:24:10.944Z,12.30
2022-10-12T08:26:38.084Z,12.10
2022-10-12T08:29:06.470Z,12.00
2022-10-12T08:31:33.370Z,12.10
2022-10-12T08:34:02.511Z,11.90
2022-10-12T08:36:29.470Z,11.90
2022-10-12T08:38:56.512Z,12.00
2022-10-12T08:41:54.375Z,12.00
2022-10-12T08:44:45.368Z,12.10
2022-10-12T08:47:19.666Z,12.30
2022-10-12T08:49:50.135Z,12.40
2022-10-12T08:52:35.061Z,12.60
2022-10-12T08:55:16.725Z,12.70
2022-10-12T08:57:47.666Z,12.90
2022-10-12T09:00:18.094Z,13.00
2022-10-12T09:02:48.214Z,13.00
2022-10-12T09:05:29.201Z,13.10
2022-10-12T09:08:07.153Z,13.20
2022-10-12T09:10:53.393Z,13.30
2022-10-12T09:13:26.546Z,13.00
2022-10-12T09:16:05.119Z,13.00
2022-10-12T09:18:32.041Z,13.10
2022-10-12T09:20:59.447Z,12.90
2022-10-12T09:23:29.892Z,12.70
2022-10-12T09:26:21.216Z,12.70
2022-10-12T09:28:56.282Z,12.70
2022-10-12T09:32:01.345Z,12.80
2022-10-12T09:34:28.343Z,12.80
2022-10-12T09:36:55.787Z,12.70
2022-10-12T09:39:30.128Z,12.80
2022-10-12T09:41:57.232Z,12.90
2022-10-12T09:44:40.669Z,13.10
2022-10-12T09:47:29.749Z,13.30
2022-10-12T09:50:02.301Z,13.50
2022-10-12T09:52:42.866Z,13.70
2022-10-12T09:55:16.055Z,13.80
2022-10-12T09:57:51.922Z,13.80
2022-10-12T10:00:31.752Z,13.50
2022-10-12T10:02:59.220Z,13.50
2022-10-12T10:05:27.921Z,13.50
2022-10-12T10:08:14.575Z,13.70
2022-10-12T10:10:53.207Z,13.90
2022-10-12T10:13:22.064Z,14.00
2022-10-12T10:15:52.322Z,14.10
2022-10-12T10:18:50.022Z,14.20
2022-10-12T10:21:25.337Z,14.00
2022-10-12T10:23:56.797Z,14.00
2022-10-12T10:26:25.679Z,14.20
2022-10-12T10:29:15.861Z,14.30
2022-10-12T10:31:46.125Z,14.50
2022-10-12T10:34:18.797Z,14.40
2022-10-12T10:36:50.251Z,14.00
2022-10-12T10:39:30.094Z,13.90
2022-10-12T10:42:10.209Z,13.90
2022-10-12T10:44:37.743Z,14.20
2022-10-12T10:47:11.421Z,14.30
2022-10-12T10:49:41.539Z,14.30
2022-10-12T10:52:34.128Z,14.00
2022-10-12T10:55:19.258Z,14.20
2022-10-12T10:57:59.851Z,14.20
2022-10-12T11:00:45.443Z,14.20
2022-10-12T11:06:00.322Z,13.70
2022-10-12T11:08:30.227Z,13.80
2022-10-12T11:11:02.475Z,13.80
2022-10-12T11:13:38.636Z,13.70
2022-10-12T11:16:29.587Z,13.60
2022-10-12T11:19:05.549Z,13.70
2022-10-12T11:21:51.125Z,13.80
2022-10-12T11:24:24.276Z,14.10
2022-10-12T11:27:09.432Z,14.40
2022-10-12T11:29:37.681Z,14.60
2022-10-12T11:32:27.271Z,14.30
2022-10-12T11:34:58.247Z,14.30
2022-10-12T11:37:40.002Z,14.30
2022-10-12T11:40:27.029Z,14.40
2022-10-12T11:43:08.354Z,14.60
2022-10-12T11:45:41.647Z,14.80
2022-10-12T11:48:18.151Z,14.90
2022-10-12T11:50:49.711Z,14.80
2022-10-12T11:53:43.964Z,14.80
2022-10-12T11:56:28.617Z,15.00
2022-10-12T11:59:02.338Z,15.30
2022-10-12T12:01:54.889Z,15.50
2022-10-12T12:04:42.529Z,15.50
2022-10-12T12:11:36.885Z,15.30
2022-10-12T12:14:27.133Z,14.80
2022-10-12T12:17:11.863Z,14.20
2022-10-12T12:19:41.316Z,14.30
2022-10-12T12:22:31.734Z,14.10
2022-10-12T12:25:12.813Z,14.10
2022-10-12T12:27:48.544Z,14.10
2022-10-12T12:30:18.481Z,13.90
2022-10-12T12:32:53.717Z,14.00
2022-10-12T12:36:01.579Z,14.10
2022-10-12T12:38:32.954Z,14.10
2022-10-12T12:41:01.976Z,14.00
2022-10-12T12:43:29.060Z,14.00
2022-10-12T12:46:01.720Z,13.90
2022-10-12T12:48:43.932Z,14.00
2022-10-12T12:51:24.395Z,13.90
2022-10-12T12:54:01.401Z,14.00
2022-10-12T12:56:37.187Z,14.00
2022-10-12T12:59:25.112Z,14.00
2022-10-12T13:02:16.529Z,13.90
2022-10-12T13:05:01.240Z,14.00
2022-10-12T13:07:47.608Z,14.20
2022-10-12T13:10:47.232Z,14.30
2022-10-12T13:13:38.756Z,14.50
2022-10-12T13:17:29.990Z,14.50
2022-10-12T13:19:22.482Z,14.60
2022-10-12T13:21:52.816Z,14.60
2022-10-12T13:24:24.657Z,14.80
2022-10-12T13:27:03.064Z,14.80
2022-10-12T13:29:56.656Z,14.80
2022-10-12T13:32:44.697Z,14.50
2022-10-12T13:35:45.814Z,14.50
2022-10-12T13:38:20.408Z,14.60
2022-10-12T13:40:58.752Z,14.50
2022-10-12T13:43:35.016Z,14.40
2022-10-12T13:46:02.958Z,14.30
2022-10-12T13:48:59.444Z,14.40
2022-10-12T13:51:24.866Z,14.30
2022-10-12T13:53:55.477Z,14.30
2022-10-12T13:56:34.043Z,14.30
2022-10-12T13:59:05.482Z,14.30
2022-10-12T14:01:55.355Z,14.40
2022-10-12T14:04:23.485Z,14.30
2022-10-12T14:06:59.208Z,14.30
2022-10-12T14:09:37.053Z,14.40
2022-10-12T14:12:04.735Z,14.30
2022-10-12T14:14:35.148Z,14.30
2022-10-12T14:17:02.993Z,14.20
2022-10-12T14:19:46.933Z,14.10
2022-10-12T14:22:46.145Z,14.20
2022-10-12T14:25:32.438Z,14.20
2022-10-12T14:28:02.465Z,14.20
2022-10-12T14:30:35.319Z,14.20
2022-10-12T14:33:18.018Z,14.10
2022-10-12T14:35:49.743Z,14.10
2022-10-12T14:38:38.595Z,14.10
2022-10-12T14:41:38.774Z,14.00
2022-10-12T14:44:16.252Z,14.00
2022-10-12T14:46:47.506Z,14.00
2022-10-12T14:49:19.258Z,14.00
2022-10-12T14:51:47.362Z,13.90
2022-10-12T14:54:14.374Z,13.90
2022-10-12T14:56:42.423Z,13.90
2022-10-12T14:59:11.721Z,13.80
2022-10-12T15:01:43.511Z,13.80
2022-10-12T15:04:15.403Z,13.80
2022-10-12T15:06:44.068Z,13.80
2022-10-12T15:09:16.711Z,13.80
2022-10-12T15:11:43.546Z,13.70
2022-10-12T15:14:11.778Z,13.80
2022-10-12T15:16:39.354Z,13.80
2022-10-12T15:19:06.509Z,13.80
2022-10-12T15:21:34.636Z,13.70
2022-10-12T15:24:04.294Z,13.70
2022-10-12T15:26:31.486Z,13.70
2022-10-12T15:28:58.489Z,13.70
2022-10-12T15:31:25.427Z,13.70
2022-10-12T15:33:52.402Z,13.70
2022-10-12T15:36:23.837Z,13.80
2022-10-12T15:38:51.457Z,13.70
2022-10-12T15:41:27.349Z,13.70
2022-10-12T15:43:54.390Z,13.70
2022-10-12T15:46:23.415Z,13.70
2022-10-12T15:48:50.780Z,13.80
2022-10-12T15:51:51.052Z,13.70
2022-10-12T15:54:21.377Z,13.80
2022-10-12T15:56:48.505Z,13.70
2022-10-12T15:59:15.552Z,13.70
2022-10-12T16:01:43.427Z,13.70
2022-10-12T16:04:14.996Z,13.60
2022-10-12T16:06:42.201Z,13.70
2022-10-12T16:09:12.150Z,13.70
2022-10-12T16:11:39.197Z,13.70
2022-10-12T16:14:06.640Z,13.70
2022-10-12T16:16:34.412Z,13.60
2022-10-12T16:19:02.091Z,13.60
2022-10-12T16:21:29.374Z,13.70
2022-10-12T16:23:59.394Z,13.60
2022-10-12T16:26:28.338Z,13.60
2022-10-12T16:28:55.310Z,13.60
2022-10-12T16:31:22.207Z,13.60
2022-10-12T16:33:49.101Z,13.60
2022-10-12T16:36:16.979Z,13.70
2022-10-12T16:38:44.535Z,13.70
2022-10-12T16:41:16.748Z,13.60
2022-10-12T16:43:44.308Z,13.60
2022-10-12T16:46:12.037Z,13.50
2022-10-12T16:48:39.184Z,13.50
2022-10-12T16:51:10.578Z,13.50
2022-10-12T16:53:37.654Z,13.50
2022-10-12T16:56:05.361Z,13.50
2022-10-12T16:58:33.131Z,13.40
2022-10-12T17:01:09.434Z,13.40
2022-10-12T17:03:36.487Z,13.30
2022-10-12T17:06:03.823Z,13.30
2022-10-12T17:08:35.648Z,13.30
2022-10-12T17:11:10.326Z,13.30
2022-10-12T17:13:38.919Z,13.30
2022-10-12T17:16:41.235Z,13.30
2022-10-12T17:19:11.089Z,13.40
2022-10-12T17:21:42.087Z,13.40
2022-10-12T17:24:10.891Z,13.40
2022-10-12T17:26:40.943Z,13.40
2022-10-12T17:29:10.006Z,13.40
2022-10-12T17:31:37.073Z,13.40
2022-10-12T17:34:04.466Z,13.40
2022-10-12T17:36:36.348Z,13.40
2022-10-12T17:39:03.504Z,13.40
2022-10-12T17:41:30.550Z,13.40
2022-10-12T17:43:58.253Z,13.40
2022-10-12T17:46:25.225Z,13.30
2022-10-12T17:48:53.353Z,13.40
2022-10-12T17:51:20.264Z,13.40
2022-10-12T17:53:47.505Z,13.40
2022-10-12T17:56:15.421Z,13.30
2022-10-12T17:58:42.605Z,13.30
2022-10-12T18:01:16.802Z,13.20
2022-10-12T18:03:46.342Z,13.20
2022-10-12T18:06:18.083Z,13.20
2022-10-12T18:08:45.033Z,13.20
2022-10-12T18:11:12.603Z,13.20
2022-10-12T18:13:39.603Z,13.20
2022-10-12T18:16:11.354Z,13.30
2022-10-12T18:18:40.744Z,13.30
2022-10-12T18:21:11.447Z,13.30
2022-10-12T18:23:45.916Z,13.30
2022-10-12T18:26:16.252Z,13.30
2022-10-12T18:28:43.191Z,13.20
2022-10-12T18:31:21.028Z,13.20
2022-10-12T18:33:48.372Z,13.30
2022-10-12T18:36:19.083Z,13.30
2022-10-12T18:38:46.561Z,13.30
2022-10-12T18:41:17.941Z,13.30
2022-10-12T18:43:45.164Z,13.30
2022-10-12T18:46:14.408Z,13.40
2022-10-12T18:48:41.536Z,13.40
2022-10-12T18:51:20.698Z,13.50
2022-10-12T18:53:48.523Z,13.50
2022-10-12T18:56:15.912Z,13.50
2022-10-12T18:58:44.740Z,13.50
2022-10-12T19:01:17.964Z,13.50
2022-10-12T19:03:45.941Z,13.50
2022-10-12T19:06:16.044Z,13.40
2022-10-12T19:08:44.063Z,13.40
2022-10-12T19:11:12.966Z,13.40
2022-10-12T19:13:41.959Z,13.50
2022-10-12T19:16:15.231Z,13.50
2022-10-12T19:18:42.362Z,13.40
2022-10-12T19:21:14.034Z,13.40
2022-10-12T19:23:42.679Z,13.50
2022-10-12T19:26:12.677Z,13.50
2022-10-12T19:28:39.906Z,13.60
2022-10-12T19:31:33.209Z,13.60
2022-10-12T19:34:06.736Z,13.50
2022-10-12T19:36:35.073Z,13.50
2022-10-12T19:39:05.486Z,13.40
2022-10-12T19:41:32.514Z,13.30
2022-10-12T19:44:01.302Z,13.20
2022-10-12T19:46:29.164Z,13.20
2022-10-12T19:48:58.044Z,13.20
2022-10-12T19:51:26.755Z,13.20
2022-10-12T19:53:55.632Z,13.00
2022-10-12T19:56:23.858Z,13.00
2022-10-12T19:58:54.434Z,13.00
2022-10-12T20:01:24.917Z,13.10
2022-10-12T20:03:52.329Z,13.20
2022-10-12T20:06:26.311Z,13.20
2022-10-12T20:08:54.997Z,13.30
2022-10-12T20:11:24.758Z,13.20
2022-10-12T20:13:56.097Z,13.20
2022-10-12T20:16:26.007Z,13.30
2022-10-12T20:18:54.360Z,13.30
2022-10-12T20:21:23.508Z,13.30
2022-10-12T20:23:51.947Z,13.30
2022-10-12T20:26:23.158Z,13.30
2022-10-12T20:28:51.125Z,13.30
2022-10-12T20:31:21.472Z,13.30
2022-10-12T20:33:53.638Z,13.30
2022-10-12T20:36:24.403Z,13.30
2022-10-12T20:38:55.031Z,13.20
2022-10-12T20:41:23.397Z,13.20
2022-10-12T20:43:55.466Z,13.10
2022-10-12T20:46:22.413Z,13.10
2022-10-12T20:48:49.467Z,13.00
2022-10-12T20:51:20.689Z,12.80
2022-10-12T20:53:47.804Z,12.80
2022-10-12T20:56:14.734Z,12.80
2022-10-12T20:58:41.857Z,12.80
2022-10-12T21:01:12.783Z,12.70
2022-10-12T21:03:42.456Z,12.70
2022-10-12T21:06:13.297Z,12.60
2022-10-12T21:08:41.023Z,12.60
2022-10-12T21:11:09.890Z,12.60
2022-10-12T21:13:41.875Z,12.60
2022-10-12T21:16:09.946Z,12.70
2022-10-12T21:18:39.364Z,12.60
2022-10-12T21:21:19.132Z,12.60
2022-10-12T21:23:56.150Z,12.50
2022-10-12T21:26:30.535Z,12.30
2022-10-12T21:28:59.572Z,12.30
2022-10-12T21:31:32.340Z,12.20
2022-10-12T21:34:01.696Z,12.20
2022-10-12T21:36:32.057Z,12.20
2022-10-12T21:38:59.053Z,12.10
